createdAt,value
2022-11-24T00:01:38.209Z,213.18
2022-11-24T00:04:39.816Z,220.70
2022-11-24T00:07:41.523Z,212.73
2022-11-24T00:10:43.181Z,211.40
2022-11-24T00:13:45.504Z,256.88
2022-11-24T00:16:47.192Z,266.10
2022-11-24T00:19:48.812Z,269.05
2022-11-24T00:22:50.918Z,275.42
2022-11-24T00:25:52.492Z,306.50
2022-11-24T00:28:56.924Z,287.38
2022-11-24T00:31:58.564Z,298.60
2022-11-24T00:35:00.304Z,286.50
2022-11-24T00:38:01.966Z,294.00
2022-11-24T00:41:03.623Z,287.08
2022-11-24T00:44:05.705Z,277.60
2022-11-24T00:47:07.437Z,276.15
2022-11-24T00:50:09.620Z,283.65
2022-11-24T00:53:11.258Z,277.50
2022-11-24T00:56:12.895Z,3.97
2022-11-24T00:59:14.499Z,8.98
2022-11-24T01:02:16.118Z,29.40
2022-11-24T01:05:17.882Z,8.73
2022-11-24T01:08:19.561Z,23.30
2022-11-24T01:11:22.364Z,12.20
2022-11-24T01:14:25.122Z,316.65
2022-11-24T01:17:27.467Z,314.02
2022-11-24T01:20:30.322Z,325.67
2022-11-24T01:23:33.179Z,311.92
2022-11-24T01:26:34.757Z,310.58
2022-11-24T01:29:36.359Z,310.20
2022-11-24T01:32:38.049Z,323.02
2022-11-24T01:35:39.638Z,322.45
2022-11-24T01:38:41.596Z,325.42
2022-11-24T01:41:43.234Z,321.73
2022-11-24T01:44:48.845Z,313.58
2022-11-24T01:47:50.572Z,283.45
2022-11-24T01:51:08.408Z,286.70
2022-11-24T01:54:23.853Z,296.40
2022-11-24T01:57:30.664Z,297.80
2022-11-24T02:00:34.537Z,297.85
2022-11-24T02:03:39.800Z,307.40
2022-11-24T02:06:43.739Z,289.92
2022-11-24T02:09:54.769Z,293.02
2022-11-24T02:12:58.967Z,293.10
2022-11-24T02:16:01.520Z,289.20
2022-11-24T02:19:18.307Z,301.83
2022-11-24T02:22:41.586Z,299.75
2022-11-24T02:26:06.052Z,322.15
2022-11-24T02:29:09.777Z,335.52
2022-11-24T02:32:12.161Z,330.70
2022-11-24T02:35:14.555Z,328.85
2022-11-24T02:38:16.239Z,324.70
2022-11-24T02:41:21.629Z,330.90
2022-11-24T02:44:26.327Z,319.65
2022-11-24T02:47:28.022Z,324.23
2022-11-24T02:50:29.764Z,328.85
2022-11-24T02:53:31.545Z,335.65
2022-11-24T02:56:33.265Z,320.77
2022-11-24T02:59:34.935Z,323.80
2022-11-24T03:02:36.600Z,325.15
2022-11-24T03:05:38.573Z,334.30
2022-11-24T03:08:40.143Z,331.50
2022-11-24T03:11:41.859Z,328.90
2022-11-24T03:14:43.508Z,317.90
2022-11-24T03:17:45.171Z,320.27
2022-11-24T03:20:46.786Z,317.90
2022-11-24T03:23:48.362Z,325.40
2022-11-24T03:26:50.017Z,326.60
2022-11-24T03:29:51.589Z,324.65
2022-11-24T03:32:56.222Z,321.77
2022-11-24T03:35:57.846Z,321.85
2022-11-24T03:38:59.442Z,325.75
2022-11-24T03:42:01.109Z,324.48
2022-11-24T03:45:29.836Z,325.35
2022-11-24T03:48:29.363Z,335.15
2022-11-24T03:54:40.191Z,341.42
2022-11-24T03:57:41.796Z,332.95
2022-11-24T04:00:43.491Z,323.35
2022-11-24T04:03:45.115Z,327.17
2022-11-24T04:06:46.773Z,324.25
2022-11-24T04:09:48.384Z,324.25
2022-11-24T04:13:16.483Z,328.70
2022-11-24T04:16:18.251Z,331.42
2022-11-24T04:19:19.970Z,335.25
2022-11-24T04:22:21.628Z,332.50
2022-11-24T04:25:23.246Z,333.85
2022-11-24T04:28:25.687Z,327.80
2022-11-24T04:31:27.495Z,332.45
2022-11-24T04:34:29.505Z,325.35
2022-11-24T04:37:31.230Z,333.33
2022-11-24T04:40:32.898Z,327.77
2022-11-24T04:43:40.301Z,331.13
2022-11-24T04:46:42.406Z,326.50
2022-11-24T04:49:44.200Z,334.48
2022-11-24T04:52:45.984Z,327.60
2022-11-24T04:55:47.745Z,331.83
2022-11-24T04:58:49.519Z,332.90
2022-11-24T05:01:51.319Z,340.52
2022-11-24T05:04:52.991Z,334.60
2022-11-24T05:07:54.620Z,341.35
2022-11-24T05:10:56.309Z,334.23
2022-11-24T05:13:58.182Z,328.10
2022-11-24T05:16:59.845Z,295.45
2022-11-24T05:20:01.524Z,307.40
2022-11-24T05:23:05.129Z,299.50
2022-11-24T05:26:07.030Z,289.95
2022-11-24T05:29:08.627Z,315.83
2022-11-24T05:32:10.273Z,317.13
2022-11-24T05:35:11.857Z,298.75
2022-11-24T05:38:13.633Z,298.83
2022-11-24T05:41:15.228Z,294.83
2022-11-24T05:44:16.827Z,302.45
2022-11-24T05:47:19.425Z,303.25
2022-11-24T05:50:22.655Z,298.23
2022-11-24T05:53:25.717Z,293.48
2022-11-24T05:56:27.301Z,299.05
2022-11-24T05:59:29.092Z,287.90
2022-11-24T06:02:30.871Z,279.73
2022-11-24T06:05:32.678Z,277.95
2022-11-24T06:08:34.390Z,281.02
2022-11-24T06:11:36.049Z,297.83
2022-11-24T06:14:37.838Z,293.25
2022-11-24T06:17:40.011Z,250.52
2022-11-24T06:20:42.211Z,274.20
2022-11-24T06:23:49.042Z,305.50
2022-11-24T06:26:50.608Z,290.65
2022-11-24T06:30:41.843Z,252.63
2022-11-24T06:33:37.360Z,284.08
2022-11-24T06:36:41.798Z,273.15
2022-11-24T06:39:43.390Z,303.88
2022-11-24T06:42:50.194Z,333.05
2022-11-24T06:45:51.999Z,287.42
2022-11-24T06:48:54.009Z,301.55
2022-11-24T06:51:55.732Z,290.50
2022-11-24T06:54:57.329Z,270.05
2022-11-24T06:57:58.967Z,259.83
2022-11-24T07:01:00.823Z,283.90
2022-11-24T07:04:02.669Z,280.45
2022-11-24T07:07:04.315Z,267.88
2022-11-24T07:10:07.075Z,274.45
2022-11-24T07:13:08.855Z,272.13
2022-11-24T07:16:26.311Z,276.85
2022-11-24T07:19:28.543Z,269.88
2022-11-24T07:22:30.230Z,269.67
2022-11-24T07:25:32.057Z,250.85
2022-11-24T07:28:34.998Z,250.45
2022-11-24T07:31:36.847Z,234.85
2022-11-24T07:34:38.606Z,246.13
2022-11-24T07:37:40.466Z,273.30
2022-11-24T07:40:43.022Z,246.70
2022-11-24T07:43:45.200Z,238.57
2022-11-24T07:46:47.161Z,217.05
2022-11-24T07:49:49.490Z,226.70
2022-11-24T07:52:52.121Z,239.02
2022-11-24T07:55:58.478Z,210.88
2022-11-24T07:59:06.647Z,207.27
2022-11-24T08:02:12.624Z,197.85
2022-11-24T08:05:15.098Z,206.95
2022-11-24T08:08:18.973Z,230.20
2022-11-24T08:11:30.478Z,221.35
2022-11-24T08:14:32.756Z,216.20
2022-11-24T08:17:34.838Z,191.70
2022-11-24T08:20:36.779Z,205.48
2022-11-24T08:23:38.783Z,225.35
2022-11-24T08:26:40.764Z,203.32
2022-11-24T08:29:43.244Z,286.63
2022-11-24T08:32:45.081Z,315.53
2022-11-24T08:35:47.044Z,318.10
2022-11-24T08:38:49.902Z,324.00
2022-11-24T08:41:51.863Z,317.60
2022-11-24T08:44:58.837Z,318.63
2022-11-24T08:48:01.012Z,318.38
2022-11-24T08:51:08.589Z,317.33
2022-11-24T08:54:13.507Z,313.58
2022-11-24T08:57:21.482Z,311.98
2022-11-24T09:00:23.918Z,318.23
2022-11-24T09:03:25.616Z,324.15
2022-11-24T09:06:31.012Z,319.27
2022-11-24T09:09:32.809Z,330.83
2022-11-24T09:12:34.689Z,330.25
2022-11-24T09:15:36.815Z,331.52
2022-11-24T09:18:39.249Z,302.70
2022-11-24T09:21:41.044Z,298.40
2022-11-24T09:24:42.794Z,320.58
2022-11-24T09:27:44.619Z,319.63
2022-11-24T09:30:46.384Z,311.73
2022-11-24T09:33:48.110Z,305.25
2022-11-24T09:37:06.290Z,315.48
2022-11-24T09:40:12.403Z,300.40
2022-11-24T09:43:34.301Z,308.75
2022-11-24T09:46:54.115Z,305.25
2022-11-24T09:50:03.885Z,305.83
2022-11-24T09:53:21.823Z,308.70
2022-11-24T09:56:30.564Z,304.90
2022-11-24T09:59:32.865Z,313.85
2022-11-24T10:02:34.845Z,309.33
2022-11-24T10:05:36.509Z,314.90
2022-11-24T10:09:00.317Z,315.10
2022-11-24T10:15:12.636Z,311.05
2022-11-24T10:18:29.469Z,6.82
2022-11-24T10:21:39.240Z,15.98
2022-11-24T10:25:11.384Z,217.88
2022-11-24T10:28:14.989Z,8.90
2022-11-24T10:31:22.738Z,4.82
2022-11-24T10:34:34.828Z,0.90
2022-11-24T10:37:43.296Z,1.52
2022-11-24T10:40:57.126Z,0.98
2022-11-24T10:43:59.708Z,0.90
2022-11-24T10:47:01.476Z,1.48
2022-11-24T10:50:15.118Z,0.90
2022-11-24T10:53:26.764Z,0.77
2022-11-24T10:56:42.780Z,1.40
2022-11-24T10:59:44.485Z,1.05
2022-11-24T11:02:48.465Z,0.98
2022-11-24T11:06:17.389Z,1.55
2022-11-24T11:09:21.224Z,1.30
2022-11-24T11:12:43.505Z,1.00
2022-11-24T11:15:45.813Z,0.65
2022-11-24T11:18:49.372Z,1.35
2022-11-24T11:22:04.490Z,1.45
2022-11-24T11:25:12.344Z,1.10
2022-11-24T11:28:27.806Z,0.77
2022-11-24T11:31:31.682Z,1.00
2022-11-24T11:34:37.063Z,1.30
2022-11-24T11:37:38.921Z,1.38
2022-11-24T11:40:42.804Z,1.50
2022-11-24T11:43:47.616Z,1.10
2022-11-24T11:46:49.618Z,0.85
2022-11-24T11:49:51.507Z,1.27
2022-11-24T11:53:09.472Z,0.93
2022-11-24T11:56:26.639Z,1.40
2022-11-24T11:59:38.893Z,0.90
2022-11-24T12:03:19.452Z,1.52
2022-11-24T12:06:45.651Z,1.55
2022-11-24T12:09:53.188Z,2.10
2022-11-24T12:13:04.314Z,1.13
2022-11-24T12:16:33.321Z,1.27
2022-11-24T12:19:51.006Z,3.97
2022-11-24T12:23:05.636Z,4.28
2022-11-24T12:26:31.595Z,1.08
2022-11-24T12:29:42.755Z,1.38
2022-11-24T12:32:51.271Z,1.55
2022-11-24T12:36:17.224Z,1.33
2022-11-24T12:39:34.609Z,0.80
2022-11-24T12:43:00.400Z,1.05
2022-11-24T12:46:18.554Z,1.00
2022-11-24T12:49:28.521Z,1.13
2022-11-24T12:52:39.374Z,1.27
2022-11-24T12:55:42.809Z,0.70
2022-11-24T12:59:10.044Z,1.10
2022-11-24T13:02:38.534Z,1.20
2022-11-24T13:05:49.323Z,1.25
2022-11-24T13:08:52.057Z,0.88
2022-11-24T13:12:17.367Z,0.98
2022-11-24T13:15:45.230Z,1.13
2022-11-24T13:19:14.861Z,1.40
2022-11-24T13:22:38.299Z,2.20
2022-11-24T13:26:37.548Z,1.08
2022-11-24T13:29:54.390Z,1.10
2022-11-24T13:33:16.554Z,0.75
2022-11-24T13:36:24.747Z,1.00
2022-11-24T13:40:09.950Z,1.00
2022-11-24T13:43:22.224Z,0.80
2022-11-24T13:47:19.479Z,0.70
2022-11-24T13:50:51.087Z,0.77
2022-11-24T13:53:54.967Z,1.10
2022-11-24T13:57:35.759Z,1.60
2022-11-24T14:01:06.800Z,1.35
2022-11-24T14:04:30.441Z,1.45
2022-11-24T14:07:35.051Z,1.23
2022-11-24T14:10:42.113Z,1.98
2022-11-24T14:13:52.551Z,1.63
2022-11-24T14:20:42.204Z,2.42
2022-11-24T14:24:00.938Z,1.90
2022-11-24T14:30:31.778Z,3.25
2022-11-24T14:33:34.026Z,2.08
2022-11-24T14:36:37.693Z,1.65
2022-11-24T14:39:44.290Z,1.35
2022-11-24T14:42:51.455Z,1.95
2022-11-24T14:45:57.819Z,2.08
2022-11-24T14:49:01.461Z,1.15
2022-11-24T14:52:11.426Z,1.60
2022-11-24T14:55:28.582Z,1.58
2022-11-24T14:58:40.514Z,1.35
2022-11-24T15:01:45.513Z,1.02
2022-11-24T15:05:03.962Z,1.23
2022-11-24T15:08:09.155Z,1.33
2022-11-24T15:11:11.130Z,1.10
2022-11-24T15:15:00.887Z,1.48
2022-11-24T15:18:04.967Z,1.45
2022-11-24T15:21:06.991Z,1.67
2022-11-24T15:24:20.959Z,1.98
2022-11-24T15:27:23.013Z,1.40
2022-11-24T15:30:24.792Z,1.73
2022-11-24T15:33:27.644Z,1.77
2022-11-24T15:36:29.570Z,2.05
2022-11-24T15:39:31.229Z,1.75
2022-11-24T15:42:33.041Z,1.05
2022-11-24T15:45:34.710Z,1.38
2022-11-24T15:48:36.552Z,2.03
2022-11-24T15:51:42.708Z,2.20
2022-11-24T15:54:44.515Z,3.53
2022-11-24T15:57:46.690Z,3.88
2022-11-24T16:00:48.409Z,3.70
2022-11-24T16:03:50.111Z,3.55
2022-11-24T16:06:51.761Z,3.30
2022-11-24T16:09:53.464Z,3.72
2022-11-24T16:12:55.403Z,2.08
2022-11-24T16:16:02.140Z,1.98
2022-11-24T16:19:04.407Z,2.40
2022-11-24T16:22:06.838Z,4.03
2022-11-24T16:25:09.245Z,2.93
2022-11-24T16:28:10.910Z,2.78
2022-11-24T16:31:16.447Z,2.00
2022-11-24T16:34:18.522Z,2.17
2022-11-24T16:37:23.232Z,1.95
2022-11-24T16:40:24.871Z,2.08
2022-11-24T16:43:28.769Z,2.72
2022-11-24T16:46:30.462Z,3.70
2022-11-24T16:49:32.235Z,3.85
2022-11-24T16:52:33.972Z,5.43
2022-11-24T16:55:36.116Z,4.65
2022-11-24T16:58:39.210Z,8.80
2022-11-24T17:01:41.097Z,7.70
2022-11-24T17:04:42.986Z,7.70
2022-11-24T17:07:44.939Z,9.52
2022-11-24T17:10:46.579Z,8.43
2022-11-24T17:13:49.281Z,6.10
2022-11-24T17:16:50.983Z,5.28
2022-11-24T17:19:52.777Z,5.65
2022-11-24T17:22:54.507Z,5.28
2022-11-24T17:26:05.261Z,6.03
2022-11-24T17:29:07.135Z,17.15
2022-11-24T17:32:09.128Z,10.00
2022-11-24T17:35:11.917Z,9.40
2022-11-24T17:38:13.809Z,8.60
2022-11-24T17:41:15.916Z,7.80
2022-11-24T17:44:17.699Z,8.45
2022-11-24T17:47:19.304Z,8.60
2022-11-24T17:50:25.326Z,7.28
2022-11-24T17:53:28.337Z,6.85
2022-11-24T17:56:30.051Z,6.35
2022-11-24T17:59:31.788Z,7.18
2022-11-24T18:02:33.834Z,7.80
2022-11-24T18:05:37.691Z,8.50
2022-11-24T18:08:41.449Z,7.47
2022-11-24T18:11:46.933Z,7.28
2022-11-24T18:14:49.570Z,7.35
2022-11-24T18:17:54.553Z,10.43
2022-11-24T18:20:58.916Z,10.63
2022-11-24T18:24:01.178Z,11.00
2022-11-24T18:27:06.093Z,9.73
2022-11-24T18:30:08.650Z,15.25
2022-11-24T18:33:10.386Z,15.13
2022-11-24T18:36:17.976Z,13.90
2022-11-24T18:39:20.084Z,15.80
2022-11-24T18:42:22.500Z,16.25
2022-11-24T18:45:24.143Z,13.82
2022-11-24T18:48:26.952Z,14.95
2022-11-24T18:51:28.779Z,11.55
2022-11-24T18:54:30.898Z,11.20
2022-11-24T18:57:32.682Z,9.40
2022-11-24T19:00:34.577Z,9.55
2022-11-24T19:03:42.374Z,10.38
2022-11-24T19:06:46.786Z,22.70
2022-11-24T19:09:48.754Z,16.35
2022-11-24T19:12:50.365Z,23.73
2022-11-24T19:15:52.196Z,18.77
2022-11-24T19:18:57.393Z,24.08
2022-11-24T19:21:59.111Z,44.15
2022-11-24T19:25:00.840Z,28.58
2022-11-24T19:28:02.783Z,20.65
2022-11-24T19:31:07.271Z,15.95
2022-11-24T19:34:09.058Z,14.27
2022-11-24T19:37:12.362Z,11.18
2022-11-24T19:40:14.688Z,9.10
2022-11-24T19:43:16.594Z,8.13
2022-11-24T19:46:18.992Z,9.15
2022-11-24T19:49:20.781Z,8.60
2022-11-24T19:52:23.430Z,9.85
2022-11-24T19:55:25.230Z,9.98
2022-11-24T19:58:26.832Z,8.23
2022-11-24T20:01:31.026Z,8.43
2022-11-24T20:04:33.720Z,8.90
2022-11-24T20:07:35.990Z,7.78
2022-11-24T20:10:40.220Z,11.82
2022-11-24T20:13:43.543Z,8.38
2022-11-24T20:16:47.093Z,7.45
2022-11-24T20:19:48.920Z,9.52
2022-11-24T20:22:50.566Z,8.90
2022-11-24T20:25:52.177Z,8.52
2022-11-24T20:28:55.859Z,9.30
2022-11-24T20:31:58.369Z,24.92
2022-11-24T20:35:01.910Z,36.78
2022-11-24T20:38:03.732Z,23.27
2022-11-24T20:41:10.154Z,17.65
2022-11-24T20:44:15.406Z,10.18
2022-11-24T20:47:17.183Z,8.85
2022-11-24T20:50:18.933Z,8.48
2022-11-24T20:53:20.785Z,7.25
2022-11-24T20:56:25.065Z,7.95
2022-11-24T20:59:27.048Z,11.38
2022-11-24T21:02:28.859Z,7.35
2022-11-24T21:05:30.801Z,7.15
2022-11-24T21:08:34.260Z,6.78
2022-11-24T21:14:38.736Z,7.97
2022-11-24T21:17:40.838Z,10.18
2022-11-24T21:21:10.125Z,6.97
2022-11-24T21:24:17.008Z,7.80
2022-11-24T21:27:19.084Z,7.60
2022-11-24T21:30:21.112Z,7.75
2022-11-24T21:33:28.836Z,7.90
2022-11-24T21:36:34.500Z,6.22
2022-11-24T21:39:41.177Z,7.82
2022-11-24T21:42:43.231Z,5.00
2022-11-24T21:45:48.365Z,6.10
2022-11-24T21:48:51.041Z,5.18
2022-11-24T21:51:55.876Z,6.75
2022-11-24T21:54:57.789Z,9.13
2022-11-24T21:57:59.446Z,6.18
2022-11-24T22:01:03.133Z,6.78
2022-11-24T22:04:04.969Z,16.38
2022-11-24T22:07:06.930Z,17.05
2022-11-24T22:10:09.202Z,9.48
2022-11-24T22:13:11.045Z,8.13
2022-11-24T22:16:15.575Z,7.85
2022-11-24T22:19:17.458Z,8.57
2022-11-24T22:22:19.079Z,8.57
2022-11-24T22:25:20.866Z,8.52
2022-11-24T22:28:22.866Z,9.07
2022-11-24T22:31:32.193Z,7.70
2022-11-24T22:34:34.281Z,8.55
2022-11-24T22:37:39.469Z,13.32
2022-11-24T22:40:41.229Z,10.10
2022-11-24T22:43:44.004Z,11.70
2022-11-24T22:46:45.571Z,15.63
2022-11-24T22:49:47.321Z,7.72
2022-11-24T22:52:50.152Z,81.90
2022-11-24T22:55:51.735Z,11.02
2022-11-24T22:58:53.871Z,6.30
2022-11-24T23:01:55.542Z,6.07
2022-11-24T23:04:57.147Z,5.63
2022-11-24T23:07:58.704Z,7.22
2022-11-24T23:11:08.065Z,21.17
2022-11-24T23:14:15.198Z,13.98
2022-11-24T23:17:17.086Z,7.57
2022-11-24T23:20:18.813Z,6.45
2022-11-24T23:23:20.478Z,12.93
2022-11-24T23:26:24.586Z,6.78
2022-11-24T23:29:26.415Z,5.35
2022-11-24T23:32:28.087Z,5.70
2022-11-24T23:35:29.906Z,6.00
2022-11-24T23:38:34.956Z,6.47
2022-11-24T23:41:36.640Z,7.65
2022-11-24T23:44:38.250Z,4.88
2022-11-24T23:47:39.898Z,5.28
2022-11-24T23:50:41.690Z,4.85
2022-11-24T23:53:44.258Z,5.13
2022-11-24T23:56:47.942Z,5.63
2022-11-24T23:59:49.551Z,4.95
